createdAt,value
2017-10-18T00:00:58.286Z,8.89
2017-10-18T00:03:27.342Z,8.86
2017-10-18T00:05:56.383Z,8.83
2017-10-18T00:08:26.317Z,8.82
2017-10-18T00:10:56.110Z,8.80
2017-10-18T00:13:25.152Z,8.82
2017-10-18T00:15:54.198Z,8.92
2017-10-18T00:18:23.263Z,9.03
2017-10-18T00:20:52.307Z,9.12
2017-10-18T00:23:21.351Z,9.16
2017-10-18T00:25:50.410Z,9.12
2017-10-18T00:28:19.446Z,9.11
2017-10-18T00:30:48.492Z,9.14
2017-10-18T00:33:17.527Z,9.12
2017-10-18T00:35:46.571Z,9.13
2017-10-18T00:38:15.616Z,9.14
2017-10-18T00:40:44.658Z,9.19
2017-10-18T00:43:13.710Z,9.26
2017-10-18T00:45:42.744Z,9.28
2017-10-18T00:48:11.798Z,9.29
2017-10-18T00:50:40.924Z,9.26
2017-10-18T00:53:10.987Z,9.26
2017-10-18T00:55:40.031Z,9.24
2017-10-18T00:58:09.070Z,9.25
2017-10-18T01:00:38.112Z,9.29
2017-10-18T01:03:07.172Z,9.32
2017-10-18T01:05:36.203Z,9.31
2017-10-18T01:08:05.335Z,9.31
2017-10-18T01:10:34.371Z,9.35
2017-10-18T01:13:03.442Z,9.53
2017-10-18T01:15:32.474Z,9.59
2017-10-18T01:18:01.532Z,9.65
2017-10-18T01:20:30.571Z,9.72
2017-10-18T01:22:59.631Z,9.73
2017-10-18T01:25:28.694Z,9.79
2017-10-18T01:27:57.738Z,9.81
2017-10-18T01:30:26.775Z,9.74
2017-10-18T01:32:55.827Z,9.78
2017-10-18T01:35:24.935Z,9.74
2017-10-18T01:37:53.961Z,9.71
2017-10-18T01:40:23.006Z,9.66
2017-10-18T01:42:52.047Z,9.62
2017-10-18T01:45:21.084Z,9.58
2017-10-18T01:47:50.127Z,9.57
2017-10-18T01:50:19.196Z,9.54
2017-10-18T01:52:48.390Z,9.49
2017-10-18T01:55:17.422Z,9.46
2017-10-18T01:57:47.467Z,9.40
2017-10-18T02:00:16.506Z,9.39
2017-10-18T02:02:45.540Z,9.40
2017-10-18T02:05:14.595Z,9.31
2017-10-18T02:07:43.630Z,9.25
2017-10-18T02:10:12.718Z,9.20
2017-10-18T02:12:41.753Z,9.12
2017-10-18T02:15:10.798Z,9.09
2017-10-18T02:17:39.835Z,9.03
2017-10-18T02:20:08.868Z,8.93
2017-10-18T02:22:37.931Z,8.88
2017-10-18T02:25:06.976Z,8.88
2017-10-18T02:27:36.035Z,8.89
2017-10-18T02:30:05.071Z,8.92
2017-10-18T02:32:34.118Z,8.94
2017-10-18T02:35:03.151Z,8.93
2017-10-18T02:37:32.183Z,8.91
2017-10-18T02:40:01.221Z,8.86
2017-10-18T02:42:30.274Z,8.83
2017-10-18T02:44:59.331Z,8.81
2017-10-18T02:47:28.370Z,8.76
2017-10-18T02:49:57.466Z,8.76
2017-10-18T02:52:26.512Z,8.71
2017-10-18T02:54:55.549Z,8.66
2017-10-18T02:57:24.630Z,8.63
2017-10-18T02:59:53.659Z,8.65
2017-10-18T03:02:22.694Z,8.71
2017-10-18T03:04:51.742Z,8.71
2017-10-18T03:07:20.995Z,8.74
2017-10-18T03:09:50.018Z,8.74
2017-10-18T03:12:19.054Z,8.69
2017-10-18T03:14:50.912Z,8.60
2017-10-18T03:17:19.971Z,8.50
2017-10-18T03:19:49.034Z,8.44
2017-10-18T03:22:18.078Z,8.43
2017-10-18T03:24:47.119Z,8.38
2017-10-18T03:27:16.138Z,8.32
2017-10-18T03:29:45.168Z,8.29
2017-10-18T03:32:14.208Z,8.24
2017-10-18T03:34:43.251Z,8.23
2017-10-18T03:37:12.332Z,8.20
2017-10-18T03:39:41.358Z,8.19
2017-10-18T03:42:10.392Z,8.16
2017-10-18T03:44:39.474Z,8.13
2017-10-18T03:47:08.484Z,8.11
2017-10-18T03:49:37.557Z,8.14
2017-10-18T03:52:06.594Z,8.11
2017-10-18T03:54:35.650Z,8.07
2017-10-18T03:57:04.699Z,7.97
2017-10-18T03:59:34.657Z,7.81
2017-10-18T04:02:03.710Z,7.60
2017-10-18T04:04:32.740Z,7.48
2017-10-18T04:07:01.776Z,7.39
2017-10-18T04:09:30.814Z,7.40
2017-10-18T04:11:59.834Z,7.37
2017-10-18T04:14:28.951Z,7.26
2017-10-18T04:16:57.971Z,7.16
2017-10-18T04:19:27.019Z,7.13
2017-10-18T04:21:56.099Z,7.10
2017-10-18T04:24:25.126Z,7.06
2017-10-18T04:26:54.171Z,7.05
2017-10-18T04:29:23.247Z,7.03
2017-10-18T04:31:52.257Z,7.00
2017-10-18T04:34:21.296Z,7.01
2017-10-18T04:36:50.379Z,7.08
2017-10-18T04:39:19.402Z,7.09
2017-10-18T04:41:48.432Z,7.13
2017-10-18T04:44:17.471Z,7.17
2017-10-18T04:46:46.535Z,7.34
2017-10-18T04:49:15.601Z,7.52
2017-10-18T04:51:44.727Z,7.68
2017-10-18T04:54:14.049Z,7.75
2017-10-18T04:56:43.245Z,7.78
2017-10-18T04:59:12.300Z,7.81
2017-10-18T05:01:41.374Z,7.83
2017-10-18T05:04:10.410Z,7.88
2017-10-18T05:06:41.173Z,7.90
2017-10-18T05:09:10.311Z,7.94
2017-10-18T05:11:39.356Z,8.02
2017-10-18T05:14:08.541Z,8.08
2017-10-18T05:16:38.501Z,8.07
2017-10-18T05:19:07.539Z,8.08
2017-10-18T05:21:36.622Z,8.11
2017-10-18T05:24:05.653Z,8.13
2017-10-18T05:26:34.717Z,8.20
2017-10-18T05:29:03.761Z,8.23
2017-10-18T05:31:32.782Z,8.28
2017-10-18T05:34:02.807Z,8.35
2017-10-18T05:36:31.906Z,8.36
2017-10-18T05:39:01.100Z,8.38
2017-10-18T05:41:30.122Z,8.41
2017-10-18T05:43:59.158Z,8.43
2017-10-18T05:46:28.182Z,8.43
2017-10-18T05:48:57.213Z,8.43
2017-10-18T05:51:26.330Z,8.46
2017-10-18T05:53:55.345Z,8.49
2017-10-18T05:56:24.384Z,8.57
2017-10-18T05:58:53.412Z,8.60
2017-10-18T06:01:22.447Z,8.62
2017-10-18T06:03:51.473Z,8.69
2017-10-18T06:06:20.519Z,8.74
2017-10-18T06:08:49.548Z,8.77
2017-10-18T06:11:18.600Z,8.75
2017-10-18T06:13:47.625Z,8.76
2017-10-18T06:16:16.660Z,8.78
2017-10-18T06:18:45.699Z,8.79
2017-10-18T06:21:14.733Z,8.83
2017-10-18T06:23:43.791Z,8.90
2017-10-18T06:26:12.812Z,8.96
2017-10-18T06:28:41.846Z,9.00
2017-10-18T06:31:10.876Z,9.08
2017-10-18T06:33:39.965Z,9.15
2017-10-18T06:36:09.030Z,9.16
2017-10-18T06:38:38.088Z,9.24
2017-10-18T06:41:07.114Z,9.36
2017-10-18T06:43:36.153Z,9.44
2017-10-18T06:46:05.226Z,9.58
2017-10-18T06:48:34.251Z,9.70
2017-10-18T06:51:03.299Z,9.81
2017-10-18T06:53:33.849Z,9.86
2017-10-18T06:56:06.526Z,9.87
2017-10-18T06:58:36.600Z,9.92
2017-10-18T07:01:05.651Z,9.97
2017-10-18T07:03:34.703Z,10.02
2017-10-18T07:06:03.757Z,10.05
2017-10-18T07:08:33.605Z,10.08
2017-10-18T07:11:02.614Z,10.15
2017-10-18T07:13:31.650Z,10.24
2017-10-18T07:16:00.697Z,10.31
2017-10-18T07:18:29.746Z,10.41
2017-10-18T07:20:58.795Z,10.54
2017-10-18T07:23:55.089Z,10.68
2017-10-18T07:30:23.544Z,11.03
2017-10-18T07:32:52.618Z,11.23
2017-10-18T07:35:21.662Z,11.42
2017-10-18T07:37:50.771Z,11.63
2017-10-18T07:40:19.925Z,11.76
2017-10-18T07:42:48.983Z,11.97
2017-10-18T07:45:21.750Z,12.19
2017-10-18T07:47:50.824Z,12.31
2017-10-18T07:50:19.908Z,12.55
2017-10-18T07:52:48.968Z,12.71
2017-10-18T07:55:18.008Z,12.95
2017-10-18T07:57:47.099Z,13.27
2017-10-18T08:00:33.527Z,13.57
2017-10-18T08:03:33.144Z,13.87
2017-10-18T08:06:11.620Z,14.11
2017-10-18T08:08:40.683Z,14.33
2017-10-18T08:11:13.603Z,14.33
2017-10-18T08:13:42.675Z,14.60
2017-10-18T08:16:13.621Z,14.87
2017-10-18T08:18:44.624Z,15.04
2017-10-18T08:21:15.768Z,15.21
2017-10-18T08:23:44.863Z,15.42
2017-10-18T08:26:18.036Z,15.65
2017-10-18T08:28:47.151Z,15.75
2017-10-18T08:31:26.324Z,15.88
2017-10-18T08:33:55.510Z,16.10
2017-10-18T08:36:24.557Z,16.28
2017-10-18T08:38:53.617Z,16.51
2017-10-18T08:41:22.723Z,16.80
2017-10-18T08:43:51.780Z,17.33
2017-10-18T08:46:33.479Z,18.64
2017-10-18T08:49:13.564Z,20.94
2017-10-18T08:51:44.622Z,22.26
2017-10-18T08:54:19.131Z,22.77
2017-10-18T08:56:48.188Z,23.58
2017-10-18T08:59:27.557Z,23.51
2017-10-18T09:02:33.479Z,24.65
2017-10-18T09:05:24.462Z,25.94
2017-10-18T09:07:53.798Z,26.68
2017-10-18T09:10:34.080Z,27.62
2017-10-18T09:13:06.219Z,29.51
2017-10-18T09:15:35.916Z,29.94
2017-10-18T09:18:06.982Z,29.65
2017-10-18T09:20:36.936Z,29.18
2017-10-18T09:23:08.045Z,29.92
2017-10-18T09:25:38.012Z,31.59
2017-10-18T09:28:30.462Z,32.63
2017-10-18T09:31:00.262Z,34.33
2017-10-18T09:33:29.449Z,34.21
2017-10-18T09:35:58.787Z,34.66
2017-10-18T09:38:35.376Z,35.54
2017-10-18T09:41:04.473Z,36.31
2017-10-18T09:43:46.448Z,36.55
2017-10-18T09:46:18.751Z,36.63
2017-10-18T09:48:54.866Z,37.17
2017-10-18T09:51:28.680Z,36.97
2017-10-18T09:53:57.940Z,37.57
2017-10-18T09:56:31.600Z,36.16
2017-10-18T09:59:01.280Z,36.56
2017-10-18T10:01:30.373Z,37.04
2017-10-18T10:04:00.656Z,34.90
2017-10-18T10:06:34.198Z,33.97
2017-10-18T10:09:03.268Z,34.76
2017-10-18T10:11:33.313Z,35.95
2017-10-18T10:14:06.304Z,37.13
2017-10-18T10:16:40.506Z,38.04
2017-10-18T10:19:09.675Z,39.02
2017-10-18T10:21:42.582Z,37.79
2017-10-18T10:24:11.684Z,36.59
2017-10-18T10:26:40.730Z,36.48
2017-10-18T10:29:09.771Z,36.85
2017-10-18T10:31:56.012Z,36.51
2017-10-18T10:34:27.119Z,37.91
2017-10-18T10:36:57.162Z,38.91
2017-10-18T10:39:41.115Z,39.94
2017-10-18T10:42:10.155Z,40.55
2017-10-18T10:44:57.877Z,40.09
2017-10-18T10:47:54.599Z,40.67
2017-10-18T10:50:34.505Z,41.20
2017-10-18T10:53:03.567Z,42.28
2017-10-18T10:55:42.721Z,42.27
2017-10-18T10:58:11.762Z,41.56
2017-10-18T11:00:54.273Z,41.92
2017-10-18T11:03:30.988Z,39.35
2017-10-18T11:06:00.696Z,39.36
2017-10-18T11:08:42.091Z,41.12
2017-10-18T11:11:12.081Z,41.39
2017-10-18T11:13:45.259Z,42.30
2017-10-18T11:16:14.335Z,42.64
2017-10-18T11:18:55.496Z,42.81
2017-10-18T11:21:24.556Z,43.58
2017-10-18T11:23:57.033Z,43.04
2017-10-18T11:26:26.079Z,42.85
2017-10-18T11:29:09.596Z,42.67
2017-10-18T11:31:38.664Z,43.15
2017-10-18T11:34:20.539Z,43.58
2017-10-18T11:37:06.941Z,43.17
2017-10-18T11:39:36.047Z,43.60
2017-10-18T11:42:12.359Z,43.92
2017-10-18T11:44:49.128Z,43.32
2017-10-18T11:47:21.729Z,43.48
2017-10-18T11:49:50.770Z,44.18
2017-10-18T11:52:20.840Z,44.62
2017-10-18T11:54:56.909Z,44.50
2017-10-18T11:57:25.974Z,43.81
2017-10-18T12:00:20.268Z,44.10
2017-10-18T12:02:54.405Z,43.92
2017-10-18T12:05:23.472Z,43.79
2017-10-18T12:08:16.378Z,43.76
2017-10-18T12:10:59.805Z,42.66
2017-10-18T12:13:28.858Z,42.46
2017-10-18T12:16:05.374Z,41.94
2017-10-18T12:18:34.435Z,41.37
2017-10-18T12:21:20.236Z,40.88
2017-10-18T12:23:56.404Z,41.26
2017-10-18T12:26:25.462Z,41.98
2017-10-18T12:29:05.434Z,42.61
2017-10-18T12:31:34.506Z,41.87
2017-10-18T12:34:03.553Z,42.20
2017-10-18T12:36:32.644Z,42.89
2017-10-18T12:39:03.621Z,42.54
2017-10-18T12:41:34.581Z,42.02
2017-10-18T12:44:10.700Z,42.14
2017-10-18T12:46:39.842Z,41.80
2017-10-18T12:49:23.436Z,42.46
2017-10-18T12:52:20.179Z,42.31
2017-10-18T12:54:59.657Z,42.40
2017-10-18T12:57:28.714Z,42.30
2017-10-18T13:00:07.118Z,42.80
2017-10-18T13:02:36.173Z,42.65
2017-10-18T13:05:05.219Z,42.02
2017-10-18T13:07:34.273Z,42.49
2017-10-18T13:10:03.329Z,42.42
2017-10-18T13:12:32.398Z,42.81
2017-10-18T13:15:07.047Z,41.93
2017-10-18T13:17:36.087Z,42.48
2017-10-18T13:20:06.159Z,42.48
2017-10-18T13:22:35.225Z,42.20
2017-10-18T13:25:04.286Z,42.79
2017-10-18T13:27:33.354Z,43.00
2017-10-18T13:30:20.927Z,43.06
2017-10-18T13:32:57.039Z,42.70
2017-10-18T13:35:26.085Z,42.75
2017-10-18T13:38:04.982Z,42.06
2017-10-18T13:40:34.057Z,41.68
2017-10-18T13:43:03.148Z,41.76
2017-10-18T13:45:32.231Z,41.85
2017-10-18T13:48:25.194Z,41.31
2017-10-18T13:50:54.767Z,40.48
2017-10-18T13:53:31.806Z,41.05
2017-10-18T13:56:07.863Z,40.71
2017-10-18T13:58:36.929Z,40.84
2017-10-18T14:01:18.030Z,40.89
2017-10-18T14:04:07.808Z,41.39
2017-10-18T14:06:37.669Z,41.60
2017-10-18T14:09:15.064Z,41.76
2017-10-18T14:11:44.124Z,41.33
2017-10-18T14:14:13.709Z,40.84
2017-10-18T14:16:42.771Z,41.15
2017-10-18T14:19:21.421Z,40.76
2017-10-18T14:21:54.916Z,40.06
2017-10-18T14:24:23.989Z,39.76
2017-10-18T14:27:00.497Z,39.39
2017-10-18T14:29:30.497Z,38.67
2017-10-18T14:31:59.533Z,37.93
2017-10-18T14:34:32.420Z,36.38
2017-10-18T14:37:09.461Z,35.67
2017-10-18T14:39:39.428Z,35.34
2017-10-18T14:42:20.687Z,34.88
2017-10-18T14:44:50.031Z,34.87
2017-10-18T14:47:22.684Z,33.86
2017-10-18T14:49:58.391Z,32.34
2017-10-18T14:52:27.458Z,30.88
2017-10-18T14:54:58.544Z,31.18
2017-10-18T14:57:27.619Z,30.60
2017-10-18T15:00:20.872Z,30.70
2017-10-18T15:03:01.184Z,29.96
2017-10-18T15:05:30.305Z,28.74
2017-10-18T15:08:21.106Z,28.84
2017-10-18T15:11:20.681Z,27.83
2017-10-18T15:14:08.040Z,27.09
2017-10-18T15:16:37.123Z,26.56
2017-10-18T15:19:14.071Z,25.92
2017-10-18T15:21:43.130Z,25.45
2017-10-18T15:24:21.398Z,25.32
2017-10-18T15:26:55.339Z,25.06
2017-10-18T15:29:28.473Z,24.84
2017-10-18T15:32:01.439Z,24.48
2017-10-18T15:34:31.499Z,24.22
2017-10-18T15:37:22.029Z,24.05
2017-10-18T15:40:21.627Z,23.83
2017-10-18T15:42:50.817Z,23.48
2017-10-18T15:45:19.902Z,23.15
2017-10-18T15:47:59.508Z,22.79
2017-10-18T15:50:30.539Z,22.21
2017-10-18T15:52:59.614Z,21.89
2017-10-18T15:55:31.956Z,21.56
2017-10-18T15:58:09.057Z,21.22
2017-10-18T16:00:38.153Z,20.74
2017-10-18T16:03:20.821Z,20.29
2017-10-18T16:05:49.904Z,19.81
2017-10-18T16:08:20.897Z,19.44
2017-10-18T16:10:57.796Z,19.08
2017-10-18T16:13:31.103Z,18.71
2017-10-18T16:16:22.046Z,18.42
2017-10-18T16:19:21.857Z,18.04
2017-10-18T16:21:59.131Z,17.66
2017-10-18T16:24:28.197Z,17.32
2017-10-18T16:27:08.398Z,17.04
2017-10-18T16:29:37.569Z,16.79
2017-10-18T16:32:13.868Z,16.54
2017-10-18T16:34:42.966Z,16.31
2017-10-18T16:37:15.851Z,16.14
2017-10-18T16:39:52.644Z,15.84
2017-10-18T16:42:22.536Z,15.70
2017-10-18T16:45:03.563Z,15.57
2017-10-18T16:47:33.717Z,15.41
2017-10-18T16:50:03.720Z,15.24
2017-10-18T16:52:33.612Z,15.02
2017-10-18T16:55:20.067Z,14.82
2017-10-18T16:58:14.176Z,14.78
2017-10-18T17:00:43.229Z,14.59
2017-10-18T17:03:23.721Z,14.50
2017-10-18T17:06:20.057Z,14.48
2017-10-18T17:08:52.929Z,14.33
2017-10-18T17:11:22.774Z,14.17
2017-10-18T17:14:24.074Z,13.93
2017-10-18T17:16:53.142Z,13.71
2017-10-18T17:19:23.622Z,13.56
2017-10-18T17:22:20.785Z,13.46
2017-10-18T17:25:13.340Z,13.28
2017-10-18T17:27:49.611Z,13.18
2017-10-18T17:30:20.795Z,13.09
2017-10-18T17:32:49.849Z,13.01
2017-10-18T17:35:22.793Z,12.96
2017-10-18T17:38:19.888Z,12.98
2017-10-18T17:40:57.825Z,12.85
2017-10-18T17:43:26.893Z,12.76
2017-10-18T17:45:55.989Z,12.64
2017-10-18T17:48:25.428Z,12.58
2017-10-18T17:50:54.472Z,12.60
2017-10-18T17:53:23.530Z,12.51
2017-10-18T17:56:07.367Z,12.46
2017-10-18T17:58:45.633Z,12.43
2017-10-18T18:01:22.568Z,12.41
2017-10-18T18:03:57.365Z,12.39
2017-10-18T18:06:26.484Z,12.42
2017-10-18T18:08:59.349Z,12.31
2017-10-18T18:11:28.449Z,12.23
2017-10-18T18:14:23.847Z,12.08
2017-10-18T18:17:21.839Z,12.08
2017-10-18T18:20:01.296Z,11.93
2017-10-18T18:22:30.363Z,11.84
2017-10-18T18:25:10.692Z,11.76
2017-10-18T18:27:41.431Z,11.66
2017-10-18T18:30:12.468Z,11.60
2017-10-18T18:32:41.531Z,11.56
2017-10-18T18:35:11.490Z,11.52
2017-10-18T18:37:50.484Z,11.50
2017-10-18T18:40:26.670Z,11.46
2017-10-18T18:42:55.713Z,11.50
2017-10-18T18:45:30.147Z,11.57
2017-10-18T18:48:02.763Z,11.57
2017-10-18T18:50:31.837Z,11.36
2017-10-18T18:53:09.992Z,11.03
2017-10-18T18:55:39.071Z,10.79
2017-10-18T18:58:21.769Z,10.68
2017-10-18T19:01:25.519Z,10.52
2017-10-18T19:04:11.779Z,10.37
2017-10-18T19:06:57.082Z,10.28
2017-10-18T19:09:26.138Z,10.27
2017-10-18T19:11:58.307Z,10.31
2017-10-18T19:14:28.281Z,10.43
2017-10-18T19:16:58.154Z,10.50
2017-10-18T19:19:27.228Z,10.50
2017-10-18T19:22:11.122Z,10.60
2017-10-18T19:24:40.208Z,10.62
2017-10-18T19:27:11.199Z,10.57
2017-10-18T19:29:40.760Z,10.51
2017-10-18T19:32:09.810Z,10.49
2017-10-18T19:34:38.862Z,10.36
2017-10-18T19:37:15.738Z,10.24
2017-10-18T19:39:45.790Z,10.15
2017-10-18T19:42:15.816Z,10.08
2017-10-18T19:44:45.811Z,10.07
2017-10-18T19:47:14.852Z,10.10
2017-10-18T19:49:43.914Z,10.07
2017-10-18T19:52:13.785Z,10.06
2017-10-18T19:54:50.573Z,9.96
2017-10-18T19:57:19.626Z,9.93
2017-10-18T19:59:51.713Z,9.96
2017-10-18T20:02:21.823Z,9.97
2017-10-18T20:04:54.573Z,9.85
2017-10-18T20:07:31.867Z,9.85
2017-10-18T20:10:00.946Z,9.73
2017-10-18T20:12:35.078Z,9.59
2017-10-18T20:15:13.325Z,9.45
2017-10-18T20:17:42.409Z,9.35
2017-10-18T20:20:15.677Z,9.35
2017-10-18T20:22:44.738Z,9.28
2017-10-18T20:25:13.796Z,9.23
2017-10-18T20:27:42.882Z,9.25
2017-10-18T20:30:11.919Z,9.27
2017-10-18T20:32:41.403Z,9.27
2017-10-18T20:35:12.554Z,9.26
2017-10-18T20:37:41.843Z,9.25
2017-10-18T20:40:11.016Z,9.26
2017-10-18T20:42:40.193Z,9.21
2017-10-18T20:45:11.515Z,9.22
2017-10-18T20:47:40.817Z,9.28
2017-10-18T20:50:22.132Z,9.29
2017-10-18T20:52:51.422Z,9.18
2017-10-18T20:55:30.734Z,9.08
2017-10-18T20:57:59.820Z,9.01
2017-10-18T21:00:40.239Z,9.01
2017-10-18T21:03:21.380Z,9.04
2017-10-18T21:05:51.372Z,8.99
2017-10-18T21:08:21.428Z,8.99
2017-10-18T21:10:50.575Z,9.03
2017-10-18T21:13:21.960Z,9.02
2017-10-18T21:15:51.029Z,8.97
2017-10-18T21:18:20.814Z,8.81
2017-10-18T21:20:49.982Z,8.67
2017-10-18T21:23:23.329Z,8.60
2017-10-18T21:25:53.415Z,8.51
2017-10-18T21:28:36.645Z,8.51
2017-10-18T21:31:11.053Z,8.46
2017-10-18T21:33:40.289Z,8.44
2017-10-18T21:36:15.108Z,8.39
2017-10-18T21:38:45.097Z,8.47
2017-10-18T21:41:17.297Z,8.51
2017-10-18T21:43:46.353Z,8.55
2017-10-18T21:46:21.831Z,8.50
2017-10-18T21:48:50.883Z,8.48
2017-10-18T21:51:40.777Z,8.48
2017-10-18T21:54:18.368Z,8.48
2017-10-18T21:56:47.413Z,8.42
2017-10-18T21:59:17.609Z,8.28
2017-10-18T22:01:47.548Z,8.14
2017-10-18T22:04:21.458Z,8.06
2017-10-18T22:06:50.468Z,7.94
2017-10-18T22:09:24.252Z,7.83
2017-10-18T22:11:53.307Z,7.78
2017-10-18T22:14:23.354Z,7.81
2017-10-18T22:16:52.400Z,7.86
2017-10-18T22:19:39.967Z,7.83
2017-10-18T22:22:14.343Z,7.89
2017-10-18T22:24:43.415Z,7.87
2017-10-18T22:27:14.379Z,7.77
2017-10-18T22:29:43.435Z,7.76
2017-10-18T22:32:20.212Z,7.69
2017-10-18T22:34:49.256Z,7.67
2017-10-18T22:37:18.339Z,7.64
2017-10-18T22:39:47.410Z,7.50
2017-10-18T22:42:40.221Z,7.37
2017-10-18T22:45:09.268Z,7.26
2017-10-18T22:47:41.521Z,7.20
2017-10-18T22:50:14.330Z,7.18
2017-10-18T22:52:43.433Z,7.23
2017-10-18T22:55:16.301Z,7.28
2017-10-18T22:57:45.399Z,7.32
2017-10-18T23:00:35.315Z,7.34
2017-10-18T23:03:27.114Z,7.36
2017-10-18T23:05:56.152Z,7.25
2017-10-18T23:08:34.820Z,7.15
2017-10-18T23:11:20.956Z,7.04
2017-10-18T23:13:51.941Z,7.00
2017-10-18T23:16:35.259Z,6.94
2017-10-18T23:19:07.601Z,6.82
2017-10-18T23:21:39.707Z,6.81
2017-10-18T23:24:18.990Z,6.83
2017-10-18T23:26:48.081Z,6.86
2017-10-18T23:29:17.182Z,6.82
2017-10-18T23:31:46.253Z,6.74
2017-10-18T23:34:25.595Z,6.73
2017-10-18T23:36:54.632Z,6.75
2017-10-18T23:39:30.719Z,6.75
2017-10-18T23:41:59.980Z,6.66
2017-10-18T23:44:36.030Z,6.64
2017-10-18T23:47:18.912Z,6.64
2017-10-18T23:49:47.980Z,6.68
2017-10-18T23:52:17.122Z,6.73
2017-10-18T23:54:51.570Z,6.69
2017-10-18T23:57:40.318Z,6.68
